sensor_id;sensor_type;location;lat;lon;timestamp;pressure;altitude;pressure_sealevel;temperature;humidity
37648;BME280;23490;53.656;10.076;2023-04-22T00:01:30;98788.19;;;-145.95;53.34
37648;BME280;23490;53.656;10.076;2023-04-22T00:03:55;98740.69;;;-145.95;52.42
37648;BME280;23490;53.656;10.076;2023-04-22T00:06:21;98744.81;;;-145.95;53.02
37648;BME280;23490;53.656;10.076;2023-04-22T00:08:46;98781.97;;;-145.95;53.32
37648;BME280;23490;53.656;10.076;2023-04-22T00:11:11;98728.28;;;-145.95;52.85
37648;BME280;23490;53.656;10.076;2023-04-22T00:13:38;98757.19;;;-145.95;52.55
37648;BME280;23490;53.656;10.076;2023-04-22T00:16:05;98753.06;;;-145.95;52.49
37648;BME280;23490;53.656;10.076;2023-04-22T00:18:33;98759.25;;;-145.95;52.21
37648;BME280;23490;53.656;10.076;2023-04-22T00:20:59;98757.19;;;-145.95;52.96
37648;BME280;23490;53.656;10.076;2023-04-22T00:23:24;98711.78;;;-145.95;51.92
37648;BME280;23490;53.656;10.076;2023-04-22T00:25:50;98732.44;;;-145.95;51.84
37648;BME280;23490;53.656;10.076;2023-04-22T00:28:15;98757.19;;;-145.95;52.12
37648;BME280;23490;53.656;10.076;2023-04-22T00:30:40;98736.56;;;-145.95;51.61
37648;BME280;23490;53.656;10.076;2023-04-22T00:33:06;98753.06;;;-145.95;52.57
37648;BME280;23490;53.656;10.076;2023-04-22T00:35:31;98715.91;;;-145.95;51.81
37648;BME280;23490;53.656;10.076;2023-04-22T00:37:57;98753.06;;;-145.95;51.90
37648;BME280;23490;53.656;10.076;2023-04-22T00:40:22;98784.03;;;-145.95;51.96
37648;BME280;23490;53.656;10.076;2023-04-22T00:42:48;98748.94;;;-145.95;51.53
37648;BME280;23490;53.656;10.076;2023-04-22T00:45:14;98738.63;;;-145.95;51.68
37648;BME280;23490;53.656;10.076;2023-04-22T00:47:43;98744.81;;;-145.95;51.74
37648;BME280;23490;53.656;10.076;2023-04-22T00:50:09;98736.56;;;-145.95;52.07
37648;BME280;23490;53.656;10.076;2023-04-22T00:52:35;98728.28;;;-145.95;51.77
37648;BME280;23490;53.656;10.076;2023-04-22T00:55:00;98763.41;;;-145.95;51.59
37648;BME280;23490;53.656;10.076;2023-04-22T00:57:28;98744.81;;;-145.95;51.77
37648;BME280;23490;53.656;10.076;2023-04-22T00:59:54;98742.75;;;-145.95;52.11
37648;BME280;23490;53.656;10.076;2023-04-22T01:02:19;98732.44;;;-145.95;51.85
37648;BME280;23490;53.656;10.076;2023-04-22T01:04:45;98744.81;;;-145.95;52.00
37648;BME280;23490;53.656;10.076;2023-04-22T01:07:11;98740.69;;;-145.95;51.89
37648;BME280;23490;53.656;10.076;2023-04-22T01:09:36;98748.94;;;-145.95;52.18
37648;BME280;23490;53.656;10.076;2023-04-22T01:12:04;98771.66;;;-145.95;52.62
37648;BME280;23490;53.656;10.076;2023-04-22T01:14:29;98790.25;;;-145.95;53.52
37648;BME280;23490;53.656;10.076;2023-04-22T01:16:55;98761.34;;;-145.95;53.54
37648;BME280;23490;53.656;10.076;2023-04-22T01:19:20;98794.38;;;-145.95;53.95
37648;BME280;23490;53.656;10.076;2023-04-22T01:21:46;98817.09;;;-145.95;54.63
37648;BME280;23490;53.656;10.076;2023-04-22T01:24:13;98786.09;;;-145.95;53.69
37648;BME280;23490;53.656;10.076;2023-04-22T01:26:39;98798.50;;;-145.95;54.00
37648;BME280;23490;53.656;10.076;2023-04-22T01:29:04;98788.19;;;-145.95;53.47
37648;BME280;23490;53.656;10.076;2023-04-22T01:31:30;98779.91;;;-145.95;53.41
37648;BME280;23490;53.656;10.076;2023-04-22T01:33:57;98777.84;;;-145.95;54.29
37648;BME280;23490;53.656;10.076;2023-04-22T01:36:23;98769.59;;;-145.95;53.66
37648;BME280;23490;53.656;10.076;2023-04-22T01:38:48;98786.09;;;-145.95;53.61
37648;BME280;23490;53.656;10.076;2023-04-22T01:41:14;98794.38;;;-145.95;53.37
37648;BME280;23490;53.656;10.076;2023-04-22T01:43:41;98786.09;;;-145.95;53.63
37648;BME280;23490;53.656;10.076;2023-04-22T01:46:07;98757.19;;;-145.95;53.36
37648;BME280;23490;53.656;10.076;2023-04-22T01:48:33;98786.09;;;-145.95;53.32
37648;BME280;23490;53.656;10.076;2023-04-22T01:50:59;98821.22;;;-145.95;53.62
37648;BME280;23490;53.656;10.076;2023-04-22T01:53:25;98800.56;;;-145.95;53.72
37648;BME280;23490;53.656;10.076;2023-04-22T01:55:51;98771.66;;;-145.95;53.45
37648;BME280;23490;53.656;10.076;2023-04-22T01:58:16;98757.19;;;-145.95;53.55
37648;BME280;23490;53.656;10.076;2023-04-22T02:00:42;98790.25;;;-145.95;53.82
37648;BME280;23490;53.656;10.076;2023-04-22T02:03:08;98823.28;;;-145.95;53.67
37648;BME280;23490;53.656;10.076;2023-04-22T02:05:33;98726.22;;;-145.95;53.92
37648;BME280;23490;53.656;10.076;2023-04-22T02:07:59;98761.34;;;-145.95;53.49
37648;BME280;23490;53.656;10.076;2023-04-22T02:10:24;98794.38;;;-145.95;53.78
37648;BME280;23490;53.656;10.076;2023-04-22T02:12:49;98769.59;;;-145.95;54.30
37648;BME280;23490;53.656;10.076;2023-04-22T02:15:15;98777.84;;;-145.95;54.07
37648;BME280;23490;53.656;10.076;2023-04-22T02:17:41;98744.81;;;-145.95;53.70
37648;BME280;23490;53.656;10.076;2023-04-22T02:20:08;98777.84;;;-145.95;53.91
37648;BME280;23490;53.656;10.076;2023-04-22T02:22:37;98757.19;;;-145.95;54.01
37648;BME280;23490;53.656;10.076;2023-04-22T02:25:03;98802.63;;;-145.95;54.33
37648;BME280;23490;53.656;10.076;2023-04-22T02:27:29;98786.09;;;-145.95;54.30
37648;BME280;23490;53.656;10.076;2023-04-22T02:29:54;98765.47;;;-145.95;54.46
37648;BME280;23490;53.656;10.076;2023-04-22T02:32:19;98738.63;;;-145.95;54.47
37648;BME280;23490;53.656;10.076;2023-04-22T02:34:47;98802.63;;;-145.95;54.46
37648;BME280;23490;53.656;10.076;2023-04-22T02:37:12;98748.94;;;-145.95;54.40
37648;BME280;23490;53.656;10.076;2023-04-22T02:39:38;98810.88;;;-145.95;54.40
37648;BME280;23490;53.656;10.076;2023-04-22T02:42:03;98790.25;;;-145.95;54.71
37648;BME280;23490;53.656;10.076;2023-04-22T02:44:28;98777.84;;;-145.95;55.04
37648;BME280;23490;53.656;10.076;2023-04-22T02:46:54;98802.63;;;-145.95;54.90
37648;BME280;23490;53.656;10.076;2023-04-22T02:49:19;98817.09;;;-145.95;54.80
37648;BME280;23490;53.656;10.076;2023-04-22T02:51:45;98781.97;;;-145.95;55.10
37648;BME280;23490;53.656;10.076;2023-04-22T02:54:10;98794.38;;;-145.95;54.66
37648;BME280;23490;53.656;10.076;2023-04-22T02:56:37;98835.66;;;-145.95;55.06
37648;BME280;23490;53.656;10.076;2023-04-22T02:59:02;98786.09;;;-145.95;54.85
37648;BME280;23490;53.656;10.076;2023-04-22T03:01:28;98810.88;;;-145.95;54.65
37648;BME280;23490;53.656;10.076;2023-04-22T03:03:53;98798.50;;;-145.95;55.31
37648;BME280;23490;53.656;10.076;2023-04-22T03:06:18;98804.69;;;-145.95;55.28
37648;BME280;23490;53.656;10.076;2023-04-22T03:08:44;98790.25;;;-145.95;55.12
37648;BME280;23490;53.656;10.076;2023-04-22T03:11:10;98823.28;;;-145.95;55.58
37648;BME280;23490;53.656;10.076;2023-04-22T03:13:35;98788.19;;;-145.95;55.30
37648;BME280;23490;53.656;10.076;2023-04-22T03:16:01;98843.94;;;-145.95;55.28
37648;BME280;23490;53.656;10.076;2023-04-22T03:18:27;98825.34;;;-145.95;55.95
37648;BME280;23490;53.656;10.076;2023-04-22T03:20:52;98790.25;;;-145.95;55.71
37648;BME280;23490;53.656;10.076;2023-04-22T03:23:18;98806.75;;;-145.95;56.12
37648;BME280;23490;53.656;10.076;2023-04-22T03:25:43;98827.41;;;-145.95;56.21
37648;BME280;23490;53.656;10.076;2023-04-22T03:28:08;98831.53;;;-145.95;56.08
37648;BME280;23490;53.656;10.076;2023-04-22T03:30:34;98815.03;;;-145.95;56.56
37648;BME280;23490;53.656;10.076;2023-04-22T03:32:59;98786.09;;;-145.95;56.36
37648;BME280;23490;53.656;10.076;2023-04-22T03:35:25;98815.03;;;-145.95;56.52
37648;BME280;23490;53.656;10.076;2023-04-22T03:37:50;98767.53;;;-145.95;56.36
37648;BME280;23490;53.656;10.076;2023-04-22T03:40:16;98827.41;;;-145.95;56.62
37648;BME280;23490;53.656;10.076;2023-04-22T03:42:41;98804.69;;;-145.95;56.62
37648;BME280;23490;53.656;10.076;2023-04-22T03:45:07;98798.50;;;-145.95;56.67
37648;BME280;23490;53.656;10.076;2023-04-22T03:47:32;98786.09;;;-145.95;56.83
37648;BME280;23490;53.656;10.076;2023-04-22T03:49:57;98821.22;;;-145.95;56.83
37648;BME280;23490;53.656;10.076;2023-04-22T03:52:23;98833.59;;;-145.95;57.08
37648;BME280;23490;53.656;10.076;2023-04-22T03:54:48;98839.78;;;-145.95;57.41
37648;BME280;23490;53.656;10.076;2023-04-22T03:57:13;98839.78;;;-145.95;57.01
37648;BME280;23490;53.656;10.076;2023-04-22T03:59:39;98815.03;;;-145.95;57.44
37648;BME280;23490;53.656;10.076;2023-04-22T04:02:05;98821.22;;;-145.95;57.79
37648;BME280;23490;53.656;10.076;2023-04-22T04:04:32;98802.63;;;-145.95;57.69
37648;BME280;23490;53.656;10.076;2023-04-22T04:06:59;98823.28;;;-145.95;58.06
37648;BME280;23490;53.656;10.076;2023-04-22T04:09:25;98887.28;;;-145.95;58.18
37648;BME280;23490;53.656;10.076;2023-04-22T04:11:50;98860.44;;;-145.95;58.27
37648;BME280;23490;53.656;10.076;2023-04-22T04:14:15;98831.53;;;-145.95;57.98
37648;BME280;23490;53.656;10.076;2023-04-22T04:16:41;98862.50;;;-145.95;59.33
37648;BME280;23490;53.656;10.076;2023-04-22T04:19:06;98843.94;;;-145.95;58.43
37648;BME280;23490;53.656;10.076;2023-04-22T04:21:32;98872.84;;;-145.95;58.73
37648;BME280;23490;53.656;10.076;2023-04-22T04:24:01;98856.31;;;-145.95;58.77
37648;BME280;23490;53.656;10.076;2023-04-22T04:26:27;98839.78;;;-145.95;58.60
37648;BME280;23490;53.656;10.076;2023-04-22T04:28:53;98868.72;;;-145.95;59.12
37648;BME280;23490;53.656;10.076;2023-04-22T04:31:18;98848.06;;;-145.95;59.17
37648;BME280;23490;53.656;10.076;2023-04-22T04:33:44;98831.53;;;-145.95;58.39
37648;BME280;23490;53.656;10.076;2023-04-22T04:36:11;98881.09;;;-145.95;58.68
37648;BME280;23490;53.656;10.076;2023-04-22T04:38:36;98841.84;;;-145.95;58.78
37648;BME280;23490;53.656;10.076;2023-04-22T04:41:02;98837.72;;;-145.95;58.59
37648;BME280;23490;53.656;10.076;2023-04-22T04:43:28;98856.31;;;-145.95;58.44
37648;BME280;23490;53.656;10.076;2023-04-22T04:45:53;98827.41;;;-145.95;58.25
37648;BME280;23490;53.656;10.076;2023-04-22T04:48:19;98843.94;;;-145.95;58.52
37648;BME280;23490;53.656;10.076;2023-04-22T04:50:44;98823.28;;;-145.95;58.43
37648;BME280;23490;53.656;10.076;2023-04-22T04:53:11;98831.53;;;-145.95;58.46
37648;BME280;23490;53.656;10.076;2023-04-22T04:55:37;98806.75;;;-145.95;58.50
37648;BME280;23490;53.656;10.076;2023-04-22T04:58:05;98839.78;;;-145.95;58.62
37648;BME280;23490;53.656;10.076;2023-04-22T05:00:31;98850.13;;;-145.95;58.20
37648;BME280;23490;53.656;10.076;2023-04-22T05:02:56;98827.41;;;-145.95;58.05
37648;BME280;23490;53.656;10.076;2023-04-22T05:05:21;98802.63;;;-145.95;58.39
37648;BME280;23490;53.656;10.076;2023-04-22T05:07:47;98798.50;;;-145.95;58.45
37648;BME280;23490;53.656;10.076;2023-04-22T05:10:12;98823.28;;;-145.95;58.04
37648;BME280;23490;53.656;10.076;2023-04-22T05:12:38;98835.66;;;-145.95;58.23
37648;BME280;23490;53.656;10.076;2023-04-22T05:15:03;98792.31;;;-145.95;57.95
37648;BME280;23490;53.656;10.076;2023-04-22T05:17:29;98810.88;;;-145.95;57.95
37648;BME280;23490;53.656;10.076;2023-04-22T05:19:55;98798.50;;;-145.95;57.99
37648;BME280;23490;53.656;10.076;2023-04-22T05:22:20;98796.44;;;-145.95;57.68
37648;BME280;23490;53.656;10.076;2023-04-22T05:24:45;98800.56;;;-145.95;57.82
37648;BME280;23490;53.656;10.076;2023-04-22T05:27:11;98748.94;;;-145.95;57.71
37648;BME280;23490;53.656;10.076;2023-04-22T05:29:37;98796.44;;;-145.95;57.73
37648;BME280;23490;53.656;10.076;2023-04-22T05:32:02;98773.72;;;-145.95;57.48
37648;BME280;23490;53.656;10.076;2023-04-22T05:34:27;98757.19;;;-145.95;57.48
37648;BME280;23490;53.656;10.076;2023-04-22T05:36:52;98732.44;;;-145.95;57.21
37648;BME280;23490;53.656;10.076;2023-04-22T05:39:18;98753.06;;;-145.95;57.79
37648;BME280;23490;53.656;10.076;2023-04-22T05:41:44;98777.84;;;-145.95;57.49
37648;BME280;23490;53.656;10.076;2023-04-22T05:44:11;98734.50;;;-145.95;57.28
37648;BME280;23490;53.656;10.076;2023-04-22T05:46:37;98736.56;;;-145.95;56.80
37648;BME280;23490;53.656;10.076;2023-04-22T05:49:03;98736.56;;;-145.95;57.15
37648;BME280;23490;53.656;10.076;2023-04-22T05:51:28;98703.53;;;-145.95;56.41
37648;BME280;23490;53.656;10.076;2023-04-22T05:53:53;98724.16;;;-145.95;56.51
37648;BME280;23490;53.656;10.076;2023-04-22T05:56:19;98699.38;;;-145.95;56.26
37648;BME280;23490;53.656;10.076;2023-04-22T05:58:45;98715.91;;;-145.95;55.72
37648;BME280;23490;53.656;10.076;2023-04-22T06:01:12;98666.34;;;-145.95;55.67
37648;BME280;23490;53.656;10.076;2023-04-22T06:03:37;98682.88;;;-145.95;55.31
37648;BME280;23490;53.656;10.076;2023-04-22T06:06:03;98674.59;;;-145.95;56.36
37648;BME280;23490;53.656;10.076;2023-04-22T06:08:30;98649.84;;;-145.95;55.28
37648;BME280;23490;53.656;10.076;2023-04-22T06:10:55;98639.50;;;-145.95;54.82
37648;BME280;23490;53.656;10.076;2023-04-22T06:13:21;98606.47;;;-145.95;54.73
37648;BME280;23490;53.656;10.076;2023-04-22T06:15:46;98598.22;;;-145.95;54.62
37648;BME280;23490;53.656;10.076;2023-04-22T06:18:11;98534.22;;;-145.95;53.54
37648;BME280;23490;53.656;10.076;2023-04-22T06:20:38;98546.59;;;-145.95;53.64
37648;BME280;23490;53.656;10.076;2023-04-22T06:23:03;98542.47;;;-145.95;54.03
37648;BME280;23490;53.656;10.076;2023-04-22T06:25:30;98517.69;;;-145.95;52.89
37648;BME280;23490;53.656;10.076;2023-04-22T06:27:57;98509.44;;;-145.95;53.07
37648;BME280;23490;53.656;10.076;2023-04-22T06:30:22;98530.06;;;-145.95;53.31
37648;BME280;23490;53.656;10.076;2023-04-22T06:32:49;98517.69;;;-145.95;53.15
37648;BME280;23490;53.656;10.076;2023-04-22T06:35:15;98511.50;;;-145.95;52.59
37648;BME280;23490;53.656;10.076;2023-04-22T06:37:40;98455.75;;;-145.95;52.09
37648;BME280;23490;53.656;10.076;2023-04-22T06:40:06;98422.72;;;-145.95;51.84
37648;BME280;23490;53.656;10.076;2023-04-22T06:42:32;98402.06;;;-145.95;51.76
37648;BME280;23490;53.656;10.076;2023-04-22T06:44:57;98385.56;;;-145.95;50.98
37648;BME280;23490;53.656;10.076;2023-04-22T06:47:23;98406.19;;;-145.95;51.28
37648;BME280;23490;53.656;10.076;2023-04-22T06:49:48;98406.19;;;-145.95;50.91
37648;BME280;23490;53.656;10.076;2023-04-22T06:52:15;98356.66;;;-145.95;50.13
37648;BME280;23490;53.656;10.076;2023-04-22T06:54:40;98344.25;;;-145.95;50.99
37648;BME280;23490;53.656;10.076;2023-04-22T06:57:05;98305.03;;;-145.95;49.58
37648;BME280;23490;53.656;10.076;2023-04-22T06:59:32;98327.75;;;-145.95;50.23
37648;BME280;23490;53.656;10.076;2023-04-22T07:01:57;98261.69;;;-145.95;49.50
37648;BME280;23490;53.656;10.076;2023-04-22T07:04:23;98286.47;;;-145.95;48.73
37648;BME280;23490;53.656;10.076;2023-04-22T07:06:48;98265.81;;;-145.95;49.61
37648;BME280;23490;53.656;10.076;2023-04-22T07:09:14;98282.31;;;-145.95;48.98
37648;BME280;23490;53.656;10.076;2023-04-22T07:11:40;98247.22;;;-145.95;49.90
37648;BME280;23490;53.656;10.076;2023-04-22T07:14:05;98232.78;;;-145.95;48.78
37648;BME280;23490;53.656;10.076;2023-04-22T07:16:31;98241.03;;;-145.95;48.55
37648;BME280;23490;53.656;10.076;2023-04-22T07:18:56;98218.31;;;-145.95;48.53
37648;BME280;23490;53.656;10.076;2023-04-22T07:21:23;98212.13;;;-145.95;48.02
37648;BME280;23490;53.656;10.076;2023-04-22T07:23:48;98146.06;;;-145.95;47.73
37648;BME280;23490;53.656;10.076;2023-04-22T07:26:14;98158.47;;;-145.95;47.36
37648;BME280;23490;53.656;10.076;2023-04-22T07:28:39;98063.50;;;-145.95;47.00
37648;BME280;23490;53.656;10.076;2023-04-22T07:31:05;98104.78;;;-145.95;47.28
37648;BME280;23490;53.656;10.076;2023-04-22T07:33:30;98110.97;;;-145.95;47.52
37648;BME280;23490;53.656;10.076;2023-04-22T07:35:56;98137.81;;;-145.95;47.06
37648;BME280;23490;53.656;10.076;2023-04-22T07:38:21;98092.41;;;-145.95;47.21
37648;BME280;23490;53.656;10.076;2023-04-22T07:40:46;98030.47;;;-145.95;45.99
37648;BME280;23490;53.656;10.076;2023-04-22T07:43:12;98094.47;;;-145.95;46.59
37648;BME280;23490;53.656;10.076;2023-04-22T07:45:39;98038.72;;;-145.95;46.40
37648;BME280;23490;53.656;10.076;2023-04-22T07:48:04;98080.00;;;-145.95;46.43
37648;BME280;23490;53.656;10.076;2023-04-22T07:50:30;98059.38;;;-145.95;46.39
37648;BME280;23490;53.656;10.076;2023-04-22T07:52:55;97941.69;;;-145.95;47.30
37648;BME280;23490;53.656;10.076;2023-04-22T07:55:21;97982.97;;;-145.95;46.40
37648;BME280;23490;53.656;10.076;2023-04-22T07:57:46;97985.03;;;-145.95;46.78
37648;BME280;23490;53.656;10.076;2023-04-22T08:00:13;97916.91;;;-145.95;46.17
37648;BME280;23490;53.656;10.076;2023-04-22T08:02:39;97935.50;;;-145.95;47.09
37648;BME280;23490;53.656;10.076;2023-04-22T08:05:05;97902.47;;;-145.95;45.20
37648;BME280;23490;53.656;10.076;2023-04-22T08:07:31;97890.09;;;-145.95;45.69
37648;BME280;23490;53.656;10.076;2023-04-22T08:09:56;97861.19;;;-145.95;46.10
37648;BME280;23490;53.656;10.076;2023-04-22T08:12:22;97795.13;;;-145.95;45.92
37648;BME280;23490;53.656;10.076;2023-04-22T08:14:47;97782.75;;;-145.95;45.04
37648;BME280;23490;53.656;10.076;2023-04-22T08:17:13;97733.22;;;-145.95;45.51
37648;BME280;23490;53.656;10.076;2023-04-22T08:19:39;97753.84;;;-145.95;44.54
37648;BME280;23490;53.656;10.076;2023-04-22T08:22:04;97706.38;;;-145.95;43.93
37648;BME280;23490;53.656;10.076;2023-04-22T08:24:31;97700.19;;;-145.95;44.08
37648;BME280;23490;53.656;10.076;2023-04-22T08:26:56;97687.78;;;-145.95;43.81
37648;BME280;23490;53.656;10.076;2023-04-22T08:29:22;97708.44;;;-145.95;43.38
37648;BME280;23490;53.656;10.076;2023-04-22T08:31:48;97673.34;;;-145.95;43.30
37648;BME280;23490;53.656;10.076;2023-04-22T08:34:13;97691.91;;;-145.95;43.05
37648;BME280;23490;53.656;10.076;2023-04-22T08:36:39;97753.84;;;-145.95;44.03
37648;BME280;23490;53.656;10.076;2023-04-22T08:39:04;97660.97;;;-145.95;43.75
37648;BME280;23490;53.656;10.076;2023-04-22T08:41:33;97638.25;;;-145.95;43.18
37648;BME280;23490;53.656;10.076;2023-04-22T08:44:00;97621.75;;;-145.95;43.32
37648;BME280;23490;53.656;10.076;2023-04-22T08:46:26;97584.59;;;-145.95;42.76
37648;BME280;23490;53.656;10.076;2023-04-22T08:48:53;97491.69;;;-145.95;42.91
37648;BME280;23490;53.656;10.076;2023-04-22T08:51:18;97518.53;;;-145.95;42.35
37648;BME280;23490;53.656;10.076;2023-04-22T08:53:44;97326.56;;;-145.95;41.93
37648;BME280;23490;53.656;10.076;2023-04-22T08:56:13;97367.84;;;-145.95;41.27
37648;BME280;23490;53.656;10.076;2023-04-22T08:58:40;97341.03;;;-145.95;41.52
37648;BME280;23490;53.656;10.076;2023-04-22T09:01:07;97338.97;;;-145.95;41.75
37648;BME280;23490;53.656;10.076;2023-04-22T09:03:38;97312.13;;;-145.95;41.21
37648;BME280;23490;53.656;10.076;2023-04-22T09:06:05;97452.47;;;-145.95;43.09
37648;BME280;23490;53.656;10.076;2023-04-22T09:08:33;97528.84;;;-145.95;43.38
37648;BME280;23490;53.656;10.076;2023-04-22T09:10:58;97580.47;;;-145.95;43.79
37648;BME280;23490;53.656;10.076;2023-04-22T09:13:25;97528.84;;;-145.95;43.43
37648;BME280;23490;53.656;10.076;2023-04-22T09:15:51;97425.66;;;-145.95;42.55
37648;BME280;23490;53.656;10.076;2023-04-22T09:18:17;97274.97;;;-145.95;42.32
37648;BME280;23490;53.656;10.076;2023-04-22T09:20:54;97188.28;;;-145.95;41.13
37648;BME280;23490;53.656;10.076;2023-04-22T09:23:20;97223.38;;;-145.95;41.43
37648;BME280;23490;53.656;10.076;2023-04-22T09:25:46;97167.66;;;-145.95;41.42
37648;BME280;23490;53.656;10.076;2023-04-22T09:28:16;97023.19;;;-145.95;39.83
37648;BME280;23490;53.656;10.076;2023-04-22T09:30:43;96787.94;;;-145.95;38.08
37648;BME280;23490;53.656;10.076;2023-04-22T09:33:09;96981.91;;;-145.95;39.54
37648;BME280;23490;53.656;10.076;2023-04-22T09:35:40;96986.03;;;-145.95;39.62
37648;BME280;23490;53.656;10.076;2023-04-22T09:38:08;96920.00;;;-145.95;39.24
37648;BME280;23490;53.656;10.076;2023-04-22T09:40:35;96858.09;;;-145.95;39.11
37648;BME280;23490;53.656;10.076;2023-04-22T09:43:03;96926.19;;;-145.95;38.60
37648;BME280;23490;53.656;10.076;2023-04-22T09:48:01;96841.59;;;-145.95;38.46
37648;BME280;23490;53.656;10.076;2023-04-22T09:50:27;96596.00;;;-145.95;37.36
37648;BME280;23490;53.656;10.076;2023-04-22T09:52:58;96422.69;;;-145.95;36.34
37648;BME280;23490;53.656;10.076;2023-04-22T09:55:25;96433.00;;;-145.95;36.36
37648;BME280;23490;53.656;10.076;2023-04-22T09:57:53;96482.53;;;-145.95;37.50
37648;BME280;23490;53.656;10.076;2023-04-22T10:00:19;96688.88;;;-145.95;37.14
37648;BME280;23490;53.656;10.076;2023-04-22T10:02:45;96618.72;;;-145.95;37.35
37648;BME280;23490;53.656;10.076;2023-04-22T10:05:10;96461.88;;;-145.95;36.51
37648;BME280;23490;53.656;10.076;2023-04-22T10:07:38;96311.25;;;-145.95;36.35
37648;BME280;23490;53.656;10.076;2023-04-22T10:10:06;96414.44;;;-145.95;35.99
37648;BME280;23490;53.656;10.076;2023-04-22T10:12:34;96639.34;;;-145.95;37.34
37648;BME280;23490;53.656;10.076;2023-04-22T10:15:00;96342.22;;;-145.95;36.39
37648;BME280;23490;53.656;10.076;2023-04-22T10:17:28;96560.94;;;-145.95;36.53
37648;BME280;23490;53.656;10.076;2023-04-22T10:19:56;96622.84;;;-145.95;37.44
37648;BME280;23490;53.656;10.076;2023-04-22T10:22:23;96437.13;;;-145.95;36.60
37648;BME280;23490;53.656;10.076;2023-04-22T10:24:48;96360.78;;;-145.95;35.22
37648;BME280;23490;53.656;10.076;2023-04-22T10:27:20;96437.13;;;-145.95;35.93
37648;BME280;23490;53.656;10.076;2023-04-22T10:29:45;96218.41;;;-145.95;36.96
37648;BME280;23490;53.656;10.076;2023-04-22T10:34:46;95855.28;;;-145.95;33.44
37648;BME280;23490;53.656;10.076;2023-04-22T10:37:17;95842.91;;;-145.95;33.13
37648;BME280;23490;53.656;10.076;2023-04-22T10:40:15;95937.81;;;-145.95;34.17
37648;BME280;23490;53.656;10.076;2023-04-22T10:42:49;95847.03;;;-145.95;33.23
37648;BME280;23490;53.656;10.076;2023-04-22T10:45:15;96173.00;;;-145.95;34.87
37648;BME280;23490;53.656;10.076;2023-04-22T10:47:42;96071.91;;;-145.95;34.31
37648;BME280;23490;53.656;10.076;2023-04-22T10:50:10;95950.19;;;-145.95;33.63
37648;BME280;23490;53.656;10.076;2023-04-22T10:52:35;95774.81;;;-145.95;33.04
37648;BME280;23490;53.656;10.076;2023-04-22T10:55:03;95807.84;;;-145.95;33.47
37648;BME280;23490;53.656;10.076;2023-04-22T10:57:31;95995.56;;;-145.95;33.11
37648;BME280;23490;53.656;10.076;2023-04-22T11:05:30;96148.25;;;-145.95;35.06
37648;BME280;23490;53.656;10.076;2023-04-22T11:08:01;96024.47;;;-145.95;34.43
37648;BME280;23490;53.656;10.076;2023-04-22T11:10:30;95871.78;;;-145.95;33.04
37648;BME280;23490;53.656;10.076;2023-04-22T11:12:56;96164.75;;;-145.95;34.26
37648;BME280;23490;53.656;10.076;2023-04-22T11:15:22;95640.72;;;-145.95;32.61
37648;BME280;23490;53.656;10.076;2023-04-22T11:17:52;95991.44;;;-145.95;33.76
37648;BME280;23490;53.656;10.076;2023-04-22T11:20:19;96086.34;;;-145.95;34.67
37648;BME280;23490;53.656;10.076;2023-04-22T11:22:46;96053.34;;;-145.95;34.50
37648;BME280;23490;53.656;10.076;2023-04-22T11:25:12;95859.41;;;-145.95;32.80
37648;BME280;23490;53.656;10.076;2023-04-22T11:27:39;96045.09;;;-145.95;33.19
37648;BME280;23490;53.656;10.076;2023-04-22T11:30:16;96045.09;;;-145.95;34.04
37648;BME280;23490;53.656;10.076;2023-04-22T11:32:50;96135.88;;;-145.95;34.27
37648;BME280;23490;53.656;10.076;2023-04-22T11:35:33;96001.75;;;-145.95;33.72
37648;BME280;23490;53.656;10.076;2023-04-22T11:38:00;95519.00;;;-145.95;32.29
37648;BME280;23490;53.656;10.076;2023-04-22T11:40:40;95570.59;;;-145.95;31.66
37648;BME280;23490;53.656;10.076;2023-04-22T11:43:07;95500.44;;;-145.95;31.54
37648;BME280;23490;53.656;10.076;2023-04-22T11:45:34;95723.25;;;-145.95;31.91
37648;BME280;23490;53.656;10.076;2023-04-22T11:48:01;96024.47;;;-145.95;32.89
37648;BME280;23490;53.656;10.076;2023-04-22T11:50:32;96224.59;;;-145.95;34.40
37648;BME280;23490;53.656;10.076;2023-04-22T11:55:28;95958.44;;;-145.95;33.47
37648;BME280;23490;53.656;10.076;2023-04-22T12:00:25;95358.13;;;-145.95;30.91
37648;BME280;23490;53.656;10.076;2023-04-22T12:02:57;95417.94;;;-145.95;31.89
37648;BME280;23490;53.656;10.076;2023-04-22T12:08:15;95541.72;;;-145.95;32.46
37648;BME280;23490;53.656;10.076;2023-04-22T12:10:52;95686.13;;;-145.95;32.09
37648;BME280;23490;53.656;10.076;2023-04-22T12:13:26;95603.59;;;-145.95;32.29
37648;BME280;23490;53.656;10.076;2023-04-22T12:15:58;95374.63;;;-145.95;31.47
37648;BME280;23490;53.656;10.076;2023-04-22T12:23:29;95269.41;;;-145.95;31.51
37648;BME280;23490;53.656;10.076;2023-04-22T12:25:56;95442.69;;;-145.95;32.37
37648;BME280;23490;53.656;10.076;2023-04-22T12:28:21;95500.44;;;-145.95;32.39
37648;BME280;23490;53.656;10.076;2023-04-22T12:30:46;95463.31;;;-145.95;32.04
37648;BME280;23490;53.656;10.076;2023-04-22T12:33:12;95611.84;;;-145.95;32.86
37648;BME280;23490;53.656;10.076;2023-04-22T12:35:37;95374.63;;;-145.95;32.23
37648;BME280;23490;53.656;10.076;2023-04-22T12:38:02;95838.78;;;-145.95;33.77
37648;BME280;23490;53.656;10.076;2023-04-22T12:40:28;95818.16;;;-145.95;33.94
37648;BME280;23490;53.656;10.076;2023-04-22T12:42:53;95900.66;;;-145.95;33.96
37648;BME280;23490;53.656;10.076;2023-04-22T12:45:19;95946.06;;;-145.95;34.26
37648;BME280;23490;53.656;10.076;2023-04-22T12:47:45;95867.66;;;-145.95;33.94
37648;BME280;23490;53.656;10.076;2023-04-22T12:50:11;95768.63;;;-145.95;33.31